Evansville (EVV/KEVV)

Map

Destinations

Information

Location
Evansville, IN
Local Time
18:24 / 6:24 pm
GMT Time
00:24 / 12:24 am
Gates
Unassigned
No FAA reported delays
METAR KEVV 222354Z 20003KT 10SM FEW040 18/12 A2980 RMK AO2 SLP090 T01780122 10222 20178 53004
TAF KEVV 222320Z 2300/2324 21006KT P6SM SCT040 FM230600 20004KT 6SM BR SCT025 FM231200 20003KT 4SM BR OVC015 FM231800 20007KT P6SM BKN035
  • No charts available